sensor_id;sensor_type;location;lat;lon;timestamp;pressure;altitude;pressure_sealevel;temperature;humidity
16738;BME280;17906;47.684;10.806;2023-02-08T00:00:58;94802.88;;;-10.57;nan
16738;BME280;17906;47.684;10.806;2023-02-08T00:03:25;94810.53;;;-10.53;nan
16738;BME280;17906;47.684;10.806;2023-02-08T00:05:53;94806.22;;;-10.54;nan
16738;BME280;17906;47.684;10.806;2023-02-08T00:08:21;94802.41;;;-10.48;nan
16738;BME280;17906;47.684;10.806;2023-02-08T00:10:48;94796.06;;;-10.60;nan
16738;BME280;17906;47.684;10.806;2023-02-08T00:13:14;94799.59;;;-10.45;nan
16738;BME280;17906;47.684;10.806;2023-02-08T00:15:42;94801.63;;;-10.34;nan
16738;BME280;17906;47.684;10.806;2023-02-08T00:18:09;94799.94;;;-10.51;nan
16738;BME280;17906;47.684;10.806;2023-02-08T00:20:37;94805.19;;;-10.51;nan
16738;BME280;17906;47.684;10.806;2023-02-08T00:23:03;94803.84;;;-10.74;nan
16738;BME280;17906;47.684;10.806;2023-02-08T00:25:31;94797.28;;;-10.65;nan
16738;BME280;17906;47.684;10.806;2023-02-08T00:27:58;94792.34;;;-10.71;nan
16738;BME280;17906;47.684;10.806;2023-02-08T00:30:25;94799.53;;;-10.75;nan
16738;BME280;17906;47.684;10.806;2023-02-08T00:32:51;94797.66;;;-10.89;nan
16738;BME280;17906;47.684;10.806;2023-02-08T00:35:18;94791.28;;;-11.00;nan
16738;BME280;17906;47.684;10.806;2023-02-08T00:37:45;94795.03;;;-11.22;nan
16738;BME280;17906;47.684;10.806;2023-02-08T00:40:12;94792.03;;;-11.14;nan
16738;BME280;17906;47.684;10.806;2023-02-08T00:42:40;94794.84;;;-11.01;nan
16738;BME280;17906;47.684;10.806;2023-02-08T00:45:07;94784.53;;;-11.04;nan
16738;BME280;17906;47.684;10.806;2023-02-08T00:47:33;94785.66;;;-11.26;nan
16738;BME280;17906;47.684;10.806;2023-02-08T00:50:00;94788.53;;;-11.30;nan
16738;BME280;17906;47.684;10.806;2023-02-08T00:52:27;94783.34;;;-11.32;nan
16738;BME280;17906;47.684;10.806;2023-02-08T00:54:54;94787.75;;;-11.32;nan
16738;BME280;17906;47.684;10.806;2023-02-08T00:57:20;94785.34;;;-11.20;nan
16738;BME280;17906;47.684;10.806;2023-02-08T00:59:48;94771.16;;;-11.16;nan
16738;BME280;17906;47.684;10.806;2023-02-08T01:02:15;94781.34;;;-11.27;nan
16738;BME280;17906;47.684;10.806;2023-02-08T01:04:42;94775.44;;;-11.30;nan
16738;BME280;17906;47.684;10.806;2023-02-08T01:07:08;94777.16;;;-11.47;nan
16738;BME280;17906;47.684;10.806;2023-02-08T01:09:35;94772.09;;;-11.50;nan
16738;BME280;17906;47.684;10.806;2023-02-08T01:12:01;94763.25;;;-11.65;nan
16738;BME280;17906;47.684;10.806;2023-02-08T01:14:28;94772.78;;;-11.63;nan
16738;BME280;17906;47.684;10.806;2023-02-08T01:16:56;94769.47;;;-11.50;nan
16738;BME280;17906;47.684;10.806;2023-02-08T01:19:23;94763.69;;;-11.56;nan
16738;BME280;17906;47.684;10.806;2023-02-08T01:21:49;94769.84;;;-11.40;nan
16738;BME280;17906;47.684;10.806;2023-02-08T01:24:16;94763.78;;;-11.41;nan
16738;BME280;17906;47.684;10.806;2023-02-08T01:26:43;94754.84;;;-11.54;nan
16738;BME280;17906;47.684;10.806;2023-02-08T01:29:09;94766.69;;;-11.64;nan
16738;BME280;17906;47.684;10.806;2023-02-08T01:31:38;94764.78;;;-11.78;nan
16738;BME280;17906;47.684;10.806;2023-02-08T01:34:07;94764.09;;;-11.64;nan
16738;BME280;17906;47.684;10.806;2023-02-08T01:36:34;94774.41;;;-11.78;nan
16738;BME280;17906;47.684;10.806;2023-02-08T01:39:02;94774.13;;;-11.72;nan
16738;BME280;17906;47.684;10.806;2023-02-08T01:41:30;94765.34;;;-11.71;nan
16738;BME280;17906;47.684;10.806;2023-02-08T01:44:01;94765.00;;;-11.65;nan
16738;BME280;17906;47.684;10.806;2023-02-08T01:46:29;94765.56;;;-11.58;nan
16738;BME280;17906;47.684;10.806;2023-02-08T01:48:57;94770.03;;;-11.60;nan
16738;BME280;17906;47.684;10.806;2023-02-08T01:51:29;94759.25;;;-11.72;nan
16738;BME280;17906;47.684;10.806;2023-02-08T01:53:59;94770.56;;;-11.71;nan
16738;BME280;17906;47.684;10.806;2023-02-08T01:56:31;94763.78;;;-11.58;nan
16738;BME280;17906;47.684;10.806;2023-02-08T01:59:00;94759.72;;;-11.81;nan
16738;BME280;17906;47.684;10.806;2023-02-08T02:01:30;94760.28;;;-11.74;nan
16738;BME280;17906;47.684;10.806;2023-02-08T02:03:59;94768.78;;;-11.71;nan
16738;BME280;17906;47.684;10.806;2023-02-08T02:06:30;94766.66;;;-11.80;nan
16738;BME280;17906;47.684;10.806;2023-02-08T02:09:04;94775.50;;;-11.82;nan
16738;BME280;17906;47.684;10.806;2023-02-08T02:11:34;94766.19;;;-11.88;nan
16738;BME280;17906;47.684;10.806;2023-02-08T02:14:01;94766.19;;;-11.88;nan
16738;BME280;17906;47.684;10.806;2023-02-08T02:16:29;94772.34;;;-12.06;nan
16738;BME280;17906;47.684;10.806;2023-02-08T02:18:55;94763.25;;;-11.99;nan
16738;BME280;17906;47.684;10.806;2023-02-08T02:21:38;94760.19;;;-11.90;nan
16738;BME280;17906;47.684;10.806;2023-02-08T02:24:41;94755.56;;;-12.02;nan
16738;BME280;17906;47.684;10.806;2023-02-08T02:27:35;94752.97;;;-12.02;nan
16738;BME280;17906;47.684;10.806;2023-02-08T02:30:31;94756.97;;;-11.95;nan
16738;BME280;17906;47.684;10.806;2023-02-08T02:33:20;94755.94;;;-12.10;nan
16738;BME280;17906;47.684;10.806;2023-02-08T02:35:55;94761.72;;;-12.03;nan
16738;BME280;17906;47.684;10.806;2023-02-08T02:38:30;94754.41;;;-11.97;nan
16738;BME280;17906;47.684;10.806;2023-02-08T02:41:05;94760.56;;;-11.98;nan
16738;BME280;17906;47.684;10.806;2023-02-08T02:43:43;94742.34;;;-11.99;nan
16738;BME280;17906;47.684;10.806;2023-02-08T02:46:21;94737.66;;;-11.92;nan
16738;BME280;17906;47.684;10.806;2023-02-08T02:48:56;94732.94;;;-11.86;nan
16738;BME280;17906;47.684;10.806;2023-02-08T02:51:27;94735.56;;;-12.20;nan
16738;BME280;17906;47.684;10.806;2023-02-08T02:54:01;94733.94;;;-12.40;nan
16738;BME280;17906;47.684;10.806;2023-02-08T02:56:32;94737.59;;;-12.26;nan
16738;BME280;17906;47.684;10.806;2023-02-08T02:59:04;94732.81;;;-12.35;nan
16738;BME280;17906;47.684;10.806;2023-02-08T03:01:32;94729.63;;;-12.41;nan
16738;BME280;17906;47.684;10.806;2023-02-08T03:04:10;94725.72;;;-12.33;nan
16738;BME280;17906;47.684;10.806;2023-02-08T03:06:48;94723.44;;;-12.39;nan
16738;BME280;17906;47.684;10.806;2023-02-08T03:09:30;94724.41;;;-12.41;nan
16738;BME280;17906;47.684;10.806;2023-02-08T03:12:05;94711.13;;;-12.37;nan
16738;BME280;17906;47.684;10.806;2023-02-08T03:14:44;94710.06;;;-12.33;nan
16738;BME280;17906;47.684;10.806;2023-02-08T03:17:27;94712.75;;;-12.34;nan
16738;BME280;17906;47.684;10.806;2023-02-08T03:20:03;94710.38;;;-12.39;nan
16738;BME280;17906;47.684;10.806;2023-02-08T03:22:40;94716.97;;;-12.32;nan
16738;BME280;17906;47.684;10.806;2023-02-08T03:25:12;94719.09;;;-12.40;nan
16738;BME280;17906;47.684;10.806;2023-02-08T03:27:48;94713.03;;;-12.40;nan
16738;BME280;17906;47.684;10.806;2023-02-08T03:30:23;94718.56;;;-12.46;nan
16738;BME280;17906;47.684;10.806;2023-02-08T03:32:55;94718.13;;;-12.55;nan
16738;BME280;17906;47.684;10.806;2023-02-08T03:35:28;94724.19;;;-12.54;nan
16738;BME280;17906;47.684;10.806;2023-02-08T03:37:58;94723.81;;;-12.46;nan
16738;BME280;17906;47.684;10.806;2023-02-08T03:40:29;94727.00;;;-12.41;nan
16738;BME280;17906;47.684;10.806;2023-02-08T03:43:00;94736.75;;;-12.62;nan
16738;BME280;17906;47.684;10.806;2023-02-08T03:45:30;94736.50;;;-12.75;nan
16738;BME280;17906;47.684;10.806;2023-02-08T03:47:59;94733.78;;;-12.91;nan
16738;BME280;17906;47.684;10.806;2023-02-08T03:50:32;94736.00;;;-12.83;nan
16738;BME280;17906;47.684;10.806;2023-02-08T03:53:00;94730.41;;;-12.93;nan
16738;BME280;17906;47.684;10.806;2023-02-08T03:55:29;94725.53;;;-13.00;nan
16738;BME280;17906;47.684;10.806;2023-02-08T03:58:03;94731.28;;;-12.94;nan
16738;BME280;17906;47.684;10.806;2023-02-08T04:00:35;94727.28;;;-12.82;nan
16738;BME280;17906;47.684;10.806;2023-02-08T04:03:07;94726.78;;;-12.71;nan
16738;BME280;17906;47.684;10.806;2023-02-08T04:05:37;94720.50;;;-12.67;nan
16738;BME280;17906;47.684;10.806;2023-02-08T04:08:04;94714.41;;;-12.68;nan
16738;BME280;17906;47.684;10.806;2023-02-08T04:10:31;94715.19;;;-12.66;nan
16738;BME280;17906;47.684;10.806;2023-02-08T04:12:58;94706.91;;;-12.93;nan
16738;BME280;17906;47.684;10.806;2023-02-08T04:15:24;94714.41;;;-13.04;nan
16738;BME280;17906;47.684;10.806;2023-02-08T04:17:52;94701.22;;;-13.01;nan
16738;BME280;17906;47.684;10.806;2023-02-08T04:20:19;94705.50;;;-13.00;nan
16738;BME280;17906;47.684;10.806;2023-02-08T04:22:47;94705.34;;;-12.97;nan
16738;BME280;17906;47.684;10.806;2023-02-08T04:25:15;94699.88;;;-12.91;nan
16738;BME280;17906;47.684;10.806;2023-02-08T04:27:43;94694.31;;;-13.02;nan
16738;BME280;17906;47.684;10.806;2023-02-08T04:30:10;94695.56;;;-12.92;nan
16738;BME280;17906;47.684;10.806;2023-02-08T04:32:37;94695.44;;;-13.07;nan
16738;BME280;17906;47.684;10.806;2023-02-08T04:35:05;94692.56;;;-12.84;nan
16738;BME280;17906;47.684;10.806;2023-02-08T04:37:32;94680.44;;;-12.85;nan
16738;BME280;17906;47.684;10.806;2023-02-08T04:39:59;94683.38;;;-12.91;nan
16738;BME280;17906;47.684;10.806;2023-02-08T04:42:26;94685.31;;;-12.96;nan
16738;BME280;17906;47.684;10.806;2023-02-08T04:44:53;59087.34;;;-146.04;100.00
16738;BME280;17906;47.684;10.806;2023-02-08T04:47:20;59087.34;;;-146.04;100.00
16738;BME280;17906;47.684;10.806;2023-02-08T04:49:47;94685.31;;;-12.96;nan
16738;BME280;17906;47.684;10.806;2023-02-08T04:52:13;94682.19;;;-13.22;nan
16738;BME280;17906;47.684;10.806;2023-02-08T04:54:40;94671.94;;;-13.26;nan
16738;BME280;17906;47.684;10.806;2023-02-08T04:57:10;94672.59;;;-13.21;nan
16738;BME280;17906;47.684;10.806;2023-02-08T04:59:37;94674.97;;;-13.17;nan
16738;BME280;17906;47.684;10.806;2023-02-08T05:02:04;94667.94;;;-13.15;nan
16738;BME280;17906;47.684;10.806;2023-02-08T05:04:30;94676.16;;;-13.05;nan
16738;BME280;17906;47.684;10.806;2023-02-08T05:06:57;94672.16;;;-13.12;nan
16738;BME280;17906;47.684;10.806;2023-02-08T05:09:23;94671.75;;;-13.22;nan
16738;BME280;17906;47.684;10.806;2023-02-08T05:11:50;94665.34;;;-13.33;nan
16738;BME280;17906;47.684;10.806;2023-02-08T05:14:18;94668.50;;;-13.27;nan
16738;BME280;17906;47.684;10.806;2023-02-08T05:16:45;94665.19;;;-13.30;nan
16738;BME280;17906;47.684;10.806;2023-02-08T05:19:11;94665.53;;;-13.38;nan
16738;BME280;17906;47.684;10.806;2023-02-08T05:21:38;94666.81;;;-13.28;nan
16738;BME280;17906;47.684;10.806;2023-02-08T05:24:05;94678.94;;;-13.27;nan
16738;BME280;17906;47.684;10.806;2023-02-08T05:26:33;94675.47;;;-13.27;nan
16738;BME280;17906;47.684;10.806;2023-02-08T05:28:59;94673.75;;;-13.46;nan
16738;BME280;17906;47.684;10.806;2023-02-08T05:31:27;94671.34;;;-13.31;nan
16738;BME280;17906;47.684;10.806;2023-02-08T05:33:54;94671.44;;;-13.16;nan
16738;BME280;17906;47.684;10.806;2023-02-08T05:36:21;94664.97;;;-13.07;nan
16738;BME280;17906;47.684;10.806;2023-02-08T05:38:48;94663.06;;;-13.03;nan
16738;BME280;17906;47.684;10.806;2023-02-08T05:41:16;94660.91;;;-13.13;nan
16738;BME280;17906;47.684;10.806;2023-02-08T05:43:42;94669.72;;;-13.15;nan
16738;BME280;17906;47.684;10.806;2023-02-08T05:46:10;94668.91;;;-12.98;nan
16738;BME280;17906;47.684;10.806;2023-02-08T05:48:38;94670.25;;;-13.08;nan
16738;BME280;17906;47.684;10.806;2023-02-08T05:51:05;94673.00;;;-13.12;nan
16738;BME280;17906;47.684;10.806;2023-02-08T05:53:31;94680.19;;;-12.98;nan
16738;BME280;17906;47.684;10.806;2023-02-08T05:55:58;94671.59;;;-13.00;nan
16738;BME280;17906;47.684;10.806;2023-02-08T05:58:25;94677.66;;;-12.99;nan
16738;BME280;17906;47.684;10.806;2023-02-08T06:00:52;94676.41;;;-13.09;nan
16738;BME280;17906;47.684;10.806;2023-02-08T06:03:19;94673.88;;;-13.11;nan
16738;BME280;17906;47.684;10.806;2023-02-08T06:05:47;94676.63;;;-13.14;nan
16738;BME280;17906;47.684;10.806;2023-02-08T06:08:14;94669.91;;;-13.01;nan
16738;BME280;17906;47.684;10.806;2023-02-08T06:10:41;94687.72;;;-12.92;nan
16738;BME280;17906;47.684;10.806;2023-02-08T06:13:07;94687.66;;;-13.09;nan
16738;BME280;17906;47.684;10.806;2023-02-08T06:15:34;94693.88;;;-13.12;nan
16738;BME280;17906;47.684;10.806;2023-02-08T06:18:01;94687.59;;;-13.07;nan
16738;BME280;17906;47.684;10.806;2023-02-08T06:20:27;94686.22;;;-13.15;nan
16738;BME280;17906;47.684;10.806;2023-02-08T06:22:56;94684.66;;;-13.19;nan
16738;BME280;17906;47.684;10.806;2023-02-08T06:25:22;94691.47;;;-13.16;nan
16738;BME280;17906;47.684;10.806;2023-02-08T06:27:49;94686.34;;;-13.18;nan
16738;BME280;17906;47.684;10.806;2023-02-08T06:30:15;94679.78;;;-13.26;nan
16738;BME280;17906;47.684;10.806;2023-02-08T06:32:42;94683.31;;;-13.08;nan
16738;BME280;17906;47.684;10.806;2023-02-08T06:35:09;94691.78;;;-13.22;nan
16738;BME280;17906;47.684;10.806;2023-02-08T06:37:35;94684.06;;;-13.06;nan
16738;BME280;17906;47.684;10.806;2023-02-08T06:40:04;94685.81;;;-12.88;nan
16738;BME280;17906;47.684;10.806;2023-02-08T06:42:31;94693.38;;;-13.01;nan
16738;BME280;17906;47.684;10.806;2023-02-08T06:44:58;94682.03;;;-13.00;nan
16738;BME280;17906;47.684;10.806;2023-02-08T06:47:25;94692.97;;;-13.10;nan
16738;BME280;17906;47.684;10.806;2023-02-08T06:49:52;94687.19;;;-13.17;nan
16738;BME280;17906;47.684;10.806;2023-02-08T06:52:19;94696.50;;;-13.12;nan
16738;BME280;17906;47.684;10.806;2023-02-08T06:54:46;94696.84;;;-13.19;nan
16738;BME280;17906;47.684;10.806;2023-02-08T06:57:14;94695.00;;;-13.17;nan
16738;BME280;17906;47.684;10.806;2023-02-08T06:59:41;94695.00;;;-12.98;nan
16738;BME280;17906;47.684;10.806;2023-02-08T07:02:11;94695.75;;;-12.77;nan
16738;BME280;17906;47.684;10.806;2023-02-08T07:04:38;94698.94;;;-12.54;nan
16738;BME280;17906;47.684;10.806;2023-02-08T07:07:05;94687.63;;;-12.19;nan
16738;BME280;17906;47.684;10.806;2023-02-08T07:09:32;94695.09;;;-11.95;nan
16738;BME280;17906;47.684;10.806;2023-02-08T07:11:58;94690.91;;;-11.48;nan
16738;BME280;17906;47.684;10.806;2023-02-08T07:14:30;94692.66;;;-11.16;nan
16738;BME280;17906;47.684;10.806;2023-02-08T07:16:57;94692.06;;;-10.73;nan
16738;BME280;17906;47.684;10.806;2023-02-08T07:19:23;94690.47;;;-10.46;nan
16738;BME280;17906;47.684;10.806;2023-02-08T07:21:50;94689.44;;;-9.98;nan
16738;BME280;17906;47.684;10.806;2023-02-08T07:24:17;94680.50;;;-9.08;nan
16738;BME280;17906;47.684;10.806;2023-02-08T07:26:43;94674.34;;;-8.39;nan
16738;BME280;17906;47.684;10.806;2023-02-08T07:29:10;94674.72;;;-7.66;nan
16738;BME280;17906;47.684;10.806;2023-02-08T07:31:38;94674.72;;;-7.66;nan
16738;BME280;17906;47.684;10.806;2023-02-08T07:34:05;94666.16;;;-6.56;nan
16738;BME280;17906;47.684;10.806;2023-02-08T07:36:31;94663.41;;;-6.18;nan
16738;BME280;17906;47.684;10.806;2023-02-08T07:39:00;94655.47;;;-5.48;nan
16738;BME280;17906;47.684;10.806;2023-02-08T07:41:26;94657.09;;;-5.69;nan
16738;BME280;17906;47.684;10.806;2023-02-08T07:43:53;94657.53;;;-5.40;nan
16738;BME280;17906;47.684;10.806;2023-02-08T07:46:20;94652.28;;;-4.84;nan
16738;BME280;17906;47.684;10.806;2023-02-08T07:48:48;94660.34;;;-4.97;nan
16738;BME280;17906;47.684;10.806;2023-02-08T07:51:15;94655.13;;;-4.43;nan
16738;BME280;17906;47.684;10.806;2023-02-08T07:53:41;94658.53;;;-4.09;nan
16738;BME280;17906;47.684;10.806;2023-02-08T07:56:08;94655.06;;;-4.09;nan
16738;BME280;17906;47.684;10.806;2023-02-08T07:58:35;94652.31;;;-4.19;nan
16738;BME280;17906;47.684;10.806;2023-02-08T08:01:02;94660.31;;;-3.98;nan
16738;BME280;17906;47.684;10.806;2023-02-08T08:03:28;94653.66;;;-4.24;nan
16738;BME280;17906;47.684;10.806;2023-02-08T08:05:56;94657.47;;;-4.17;nan
16738;BME280;17906;47.684;10.806;2023-02-08T08:08:23;94654.66;;;-4.05;nan
16738;BME280;17906;47.684;10.806;2023-02-08T08:10:49;94656.06;;;-3.57;nan
16738;BME280;17906;47.684;10.806;2023-02-08T08:13:16;94662.19;;;-3.57;nan
16738;BME280;17906;47.684;10.806;2023-02-08T08:15:43;94652.56;;;-3.37;nan
16738;BME280;17906;47.684;10.806;2023-02-08T08:18:09;94664.91;;;-3.05;nan
16738;BME280;17906;47.684;10.806;2023-02-08T08:20:36;94653.91;;;-3.01;nan
16738;BME280;17906;47.684;10.806;2023-02-08T08:23:04;94647.81;;;-2.92;nan
16738;BME280;17906;47.684;10.806;2023-02-08T08:25:30;94644.56;;;-2.65;nan
16738;BME280;17906;47.684;10.806;2023-02-08T08:27:57;94636.22;;;-1.91;nan
16738;BME280;17906;47.684;10.806;2023-02-08T08:30:24;94644.72;;;-2.16;nan
16738;BME280;17906;47.684;10.806;2023-02-08T08:32:50;94643.75;;;-2.55;nan
16738;BME280;17906;47.684;10.806;2023-02-08T08:35:17;94645.84;;;-2.90;nan
16738;BME280;17906;47.684;10.806;2023-02-08T08:37:44;94655.13;;;-2.74;nan
16738;BME280;17906;47.684;10.806;2023-02-08T08:40:12;94647.81;;;-2.92;nan
16738;BME280;17906;47.684;10.806;2023-02-08T08:42:38;94652.78;;;-2.98;nan
16738;BME280;17906;47.684;10.806;2023-02-08T08:45:06;94652.56;;;-3.16;nan
16738;BME280;17906;47.684;10.806;2023-02-08T08:47:33;94651.38;;;-3.65;nan
16738;BME280;17906;47.684;10.806;2023-02-08T08:49:59;94649.16;;;-3.49;nan
16738;BME280;17906;47.684;10.806;2023-02-08T08:52:27;94656.41;;;-3.62;nan
16738;BME280;17906;47.684;10.806;2023-02-08T08:54:53;94657.41;;;-3.63;nan
16738;BME280;17906;47.684;10.806;2023-02-08T08:57:21;94656.72;;;-3.76;nan
16738;BME280;17906;47.684;10.806;2023-02-08T08:59:48;94654.09;;;-2.93;nan
16738;BME280;17906;47.684;10.806;2023-02-08T09:02:14;94647.75;;;-2.31;nan
16738;BME280;17906;47.684;10.806;2023-02-08T09:04:42;94644.34;;;-1.83;nan
16738;BME280;17906;47.684;10.806;2023-02-08T09:07:09;94646.25;;;-2.14;nan
16738;BME280;17906;47.684;10.806;2023-02-08T09:09:36;94648.88;;;-2.33;nan
16738;BME280;17906;47.684;10.806;2023-02-08T09:12:03;94651.00;;;-2.27;nan
16738;BME280;17906;47.684;10.806;2023-02-08T09:14:32;94658.47;;;-2.42;nan
16738;BME280;17906;47.684;10.806;2023-02-08T09:16:59;94645.69;;;-2.27;nan
16738;BME280;17906;47.684;10.806;2023-02-08T09:19:25;94646.31;;;-3.36;nan
16738;BME280;17906;47.684;10.806;2023-02-08T09:21:53;94648.69;;;-3.12;nan
16738;BME280;17906;47.684;10.806;2023-02-08T09:24:22;94645.44;;;-2.85;nan
16738;BME280;17906;47.684;10.806;2023-02-08T09:26:48;94636.50;;;-2.04;nan
16738;BME280;17906;47.684;10.806;2023-02-08T09:29:15;94629.09;;;-1.71;nan
16738;BME280;17906;47.684;10.806;2023-02-08T09:31:43;94633.28;;;-1.68;nan
16738;BME280;17906;47.684;10.806;2023-02-08T09:34:10;94642.66;;;-1.84;nan
16738;BME280;17906;47.684;10.806;2023-02-08T09:36:38;94638.19;;;-1.45;nan
16738;BME280;17906;47.684;10.806;2023-02-08T09:39:07;94634.56;;;-1.63;nan
16738;BME280;17906;47.684;10.806;2023-02-08T09:41:47;94636.78;;;-1.49;nan
16738;BME280;17906;47.684;10.806;2023-02-08T09:44:22;94640.97;;;-1.56;nan
16738;BME280;17906;47.684;10.806;2023-02-08T09:46:56;94643.50;;;-1.45;nan
16738;BME280;17906;47.684;10.806;2023-02-08T09:49:27;94645.13;;;-1.05;nan
16738;BME280;17906;47.684;10.806;2023-02-08T09:51:59;94635.75;;;-0.99;nan
16738;BME280;17906;47.684;10.806;2023-02-08T09:54:30;94632.34;;;-0.92;nan
16738;BME280;17906;47.684;10.806;2023-02-08T09:56:59;94636.38;;;-0.41;nan
16738;BME280;17906;47.684;10.806;2023-02-08T09:59:29;94642.72;;;-0.51;nan
16738;BME280;17906;47.684;10.806;2023-02-08T10:02:03;94641.75;;;-0.88;nan
16738;BME280;17906;47.684;10.806;2023-02-08T10:04:40;94639.94;;;-0.60;nan
16738;BME280;17906;47.684;10.806;2023-02-08T10:07:14;94640.38;;;-0.27;nan
16738;BME280;17906;47.684;10.806;2023-02-08T10:09:40;94638.91;;;-0.12;nan
16738;BME280;17906;47.684;10.806;2023-02-08T10:12:15;59087.34;;;-146.04;100.00
16738;BME280;17906;47.684;10.806;2023-02-08T10:14:56;59087.34;;;-146.04;100.00
16738;BME280;17906;47.684;10.806;2023-02-08T10:17:46;94638.91;;;-0.12;nan
16738;BME280;17906;47.684;10.806;2023-02-08T10:20:27;94628.66;;;-1.66;nan
16738;BME280;17906;47.684;10.806;2023-02-08T10:23:05;94635.63;;;-1.17;nan
16738;BME280;17906;47.684;10.806;2023-02-08T10:25:45;94638.56;;;-0.64;nan
16738;BME280;17906;47.684;10.806;2023-02-08T10:28:25;94640.56;;;-0.38;nan
16738;BME280;17906;47.684;10.806;2023-02-08T10:30:59;94637.25;;;-0.50;nan
16738;BME280;17906;47.684;10.806;2023-02-08T10:33:32;94629.41;;;-0.51;nan
16738;BME280;17906;47.684;10.806;2023-02-08T10:36:12;94630.34;;;-0.80;nan
16738;BME280;17906;47.684;10.806;2023-02-08T10:38:40;94633.00;;;0.12;nan
16738;BME280;17906;47.684;10.806;2023-02-08T10:41:08;94627.13;;;-0.74;nan
16738;BME280;17906;47.684;10.806;2023-02-08T10:43:43;94631.25;;;-0.52;nan
16738;BME280;17906;47.684;10.806;2023-02-08T10:46:15;94636.50;;;-0.79;nan
16738;BME280;17906;47.684;10.806;2023-02-08T10:48:52;94622.84;;;-0.57;nan
16738;BME280;17906;47.684;10.806;2023-02-08T10:51:24;94614.84;;;-0.57;nan
16738;BME280;17906;47.684;10.806;2023-02-08T10:53:52;94616.81;;;-0.96;nan
16738;BME280;17906;47.684;10.806;2023-02-08T10:56:34;94612.16;;;-0.85;nan
16738;BME280;17906;47.684;10.806;2023-02-08T10:59:06;94609.19;;;-1.28;nan
16738;BME280;17906;47.684;10.806;2023-02-08T11:01:35;94609.50;;;-1.41;nan
16738;BME280;17906;47.684;10.806;2023-02-08T11:04:05;94602.41;;;-1.03;nan
16738;BME280;17906;47.684;10.806;2023-02-08T11:06:34;94600.34;;;-1.09;nan
16738;BME280;17906;47.684;10.806;2023-02-08T11:09:01;94600.34;;;-0.72;nan
16738;BME280;17906;47.684;10.806;2023-02-08T11:11:32;94593.06;;;-1.07;nan
16738;BME280;17906;47.684;10.806;2023-02-08T11:14:07;94598.38;;;-1.07;nan
16738;BME280;17906;47.684;10.806;2023-02-08T11:16:35;94591.53;;;-1.10;nan
16738;BME280;17906;47.684;10.806;2023-02-08T11:19:04;94589.09;;;-1.03;nan
16738;BME280;17906;47.684;10.806;2023-02-08T11:21:33;94583.47;;;-1.00;nan
16738;BME280;17906;47.684;10.806;2023-02-08T11:24:05;94580.34;;;-0.76;nan
16738;BME280;17906;47.684;10.806;2023-02-08T11:26:36;94579.09;;;-0.82;nan
16738;BME280;17906;47.684;10.806;2023-02-08T11:29:04;94583.84;;;-0.76;nan
16738;BME280;17906;47.684;10.806;2023-02-08T11:31:36;94581.06;;;-0.57;nan
16738;BME280;17906;47.684;10.806;2023-02-08T11:34:08;94575.47;;;-0.53;nan
16738;BME280;17906;47.684;10.806;2023-02-08T11:36:37;94570.28;;;-0.92;nan
16738;BME280;17906;47.684;10.806;2023-02-08T11:39:15;94574.94;;;-0.94;nan
16738;BME280;17906;47.684;10.806;2023-02-08T11:41:43;94564.09;;;-0.83;nan
16738;BME280;17906;47.684;10.806;2023-02-08T11:44:13;94555.69;;;-0.51;nan
16738;BME280;17906;47.684;10.806;2023-02-08T11:46:45;94553.34;;;-0.36;nan
16738;BME280;17906;47.684;10.806;2023-02-08T11:49:21;94549.28;;;-0.13;nan
16738;BME280;17906;47.684;10.806;2023-02-08T11:51:48;94556.72;;;-0.34;nan
16738;BME280;17906;47.684;10.806;2023-02-08T11:54:32;94553.94;;;-0.70;nan
16738;BME280;17906;47.684;10.806;2023-02-08T11:57:11;94548.16;;;-0.93;nan
16738;BME280;17906;47.684;10.806;2023-02-08T11:59:39;94550.28;;;-0.69;nan
16738;BME280;17906;47.684;10.806;2023-02-08T12:02:28;94550.03;;;-0.66;nan
16738;BME280;17906;47.684;10.806;2023-02-08T12:04:57;94554.44;;;-0.84;nan
16738;BME280;17906;47.684;10.806;2023-02-08T12:07:30;94543.91;;;-0.76;nan
16738;BME280;17906;47.684;10.806;2023-02-08T12:10:15;94551.13;;;-0.96;nan
16738;BME280;17906;47.684;10.806;2023-02-08T12:12:59;94552.66;;;-0.93;nan
16738;BME280;17906;47.684;10.806;2023-02-08T12:15:40;94540.16;;;-0.83;nan
16738;BME280;17906;47.684;10.806;2023-02-08T12:18:20;94543.19;;;-1.05;nan
16738;BME280;17906;47.684;10.806;2023-02-08T12:20:53;94523.88;;;-0.80;nan
16738;BME280;17906;47.684;10.806;2023-02-08T12:23:31;94525.69;;;-0.80;nan
16738;BME280;17906;47.684;10.806;2023-02-08T12:26:14;94520.69;;;-0.56;nan
16738;BME280;17906;47.684;10.806;2023-02-08T12:28:52;94522.41;;;-0.65;nan
16738;BME280;17906;47.684;10.806;2023-02-08T12:31:32;94515.69;;;-0.96;nan
16738;BME280;17906;47.684;10.806;2023-02-08T12:34:09;94509.03;;;-1.10;nan
16738;BME280;17906;47.684;10.806;2023-02-08T12:36:57;94508.78;;;-1.63;nan
16738;BME280;17906;47.684;10.806;2023-02-08T12:39:44;94494.34;;;-1.51;nan
16738;BME280;17906;47.684;10.806;2023-02-08T12:42:38;94500.03;;;-1.36;nan
16738;BME280;17906;47.684;10.806;2023-02-08T12:45:34;94498.00;;;-1.52;nan
16738;BME280;17906;47.684;10.806;2023-02-08T12:48:13;94492.44;;;-1.88;nan
16738;BME280;17906;47.684;10.806;2023-02-08T12:50:49;94497.06;;;-1.90;nan
16738;BME280;17906;47.684;10.806;2023-02-08T12:53:23;94486.34;;;-2.37;nan
16738;BME280;17906;47.684;10.806;2023-02-08T12:55:57;94483.25;;;-2.51;nan
16738;BME280;17906;47.684;10.806;2023-02-08T12:58:28;94480.19;;;-2.47;nan
16738;BME280;17906;47.684;10.806;2023-02-08T13:00:59;94471.38;;;-2.38;nan
16738;BME280;17906;47.684;10.806;2023-02-08T13:03:33;94465.94;;;-2.46;nan
16738;BME280;17906;47.684;10.806;2023-02-08T13:06:03;94476.13;;;-2.61;nan
16738;BME280;17906;47.684;10.806;2023-02-08T13:08:38;94468.03;;;-2.59;nan
16738;BME280;17906;47.684;10.806;2023-02-08T13:11:10;94462.56;;;-2.57;nan
16738;BME280;17906;47.684;10.806;2023-02-08T13:13:41;94476.53;;;-2.46;nan
16738;BME280;17906;47.684;10.806;2023-02-08T13:16:12;94461.47;;;-2.36;nan
16738;BME280;17906;47.684;10.806;2023-02-08T13:18:44;94456.16;;;-2.36;nan
16738;BME280;17906;47.684;10.806;2023-02-08T13:21:13;94452.22;;;-2.32;nan